Austell, Georgia
Current Conditions -  °F | °C
As of 6:53 PM on Sunday 25 Jan 2015 (Local Time) from KFTY Reporting Station
Overcast Overcast  
Wind Chill: 56°   Ceiling: 10000
Heat Index: 56°   Visibility: 10mi
Dew Point: 31°   Wind: 6mph
Humidity: 39%   Direction: 180°S
Pressure: 29.75"   Gusts: NA
Location:  33.82°N, 84.64°W
Report Text: KFTY 252353Z 18005KT 10SM OVC100 13/M01 A2975 RMK AO2 SLP076 T01331006 10156 20128 53004
Loading
Personal Weather Stations






























Interactive Weather Map New forecast layout! Learn more

10-Day Weather Forecast

Advertisements
Track Severe Weather on mobile